createdAt,value
2023-04-02T00:02:30.928Z,99747.84
2023-04-02T00:05:27.413Z,99754.09
2023-04-02T00:07:54.399Z,99752.44
2023-04-02T00:10:31.709Z,99755.28
2023-04-02T00:13:06.881Z,99759.50
2023-04-02T00:15:34.312Z,99760.66
2023-04-02T00:18:01.934Z,99767.03
2023-04-02T00:20:32.872Z,99766.19
2023-04-02T00:22:59.278Z,99766.38
2023-04-02T00:25:27.217Z,99774.44
2023-04-02T00:27:56.111Z,99784.19
2023-04-02T00:30:24.972Z,99782.31
2023-04-02T00:32:52.019Z,99784.06
2023-04-02T00:35:22.976Z,99788.72
2023-04-02T00:37:50.737Z,99787.88
2023-04-02T00:40:21.239Z,99789.03
2023-04-02T00:42:48.578Z,99798.03
2023-04-02T00:45:22.790Z,99807.16
2023-04-02T00:47:49.905Z,99810.72
2023-04-02T00:50:21.880Z,99815.19
2023-04-02T00:52:51.790Z,99817.06
2023-04-02T00:55:22.422Z,99816.88
2023-04-02T00:57:50.822Z,99827.63
2023-04-02T01:00:27.241Z,99827.69
2023-04-02T01:03:34.481Z,99835.78
2023-04-02T01:06:06.369Z,99838.38
2023-04-02T01:08:46.359Z,99833.84
2023-04-02T01:11:34.558Z,99844.72
2023-04-02T01:14:11.184Z,99844.91
2023-04-02T01:16:50.302Z,99850.28
2023-04-02T01:19:43.452Z,99858.22
2023-04-02T01:22:18.125Z,99865.44
2023-04-02T01:24:45.362Z,99872.63
2023-04-02T01:27:16.722Z,99870.94
2023-04-02T01:29:48.359Z,99876.47
2023-04-02T01:32:17.903Z,99880.91
2023-04-02T01:34:46.543Z,99891.00
2023-04-02T01:37:30.444Z,99899.06
2023-04-02T01:40:09.153Z,99899.84
2023-04-02T01:42:41.486Z,99910.72
2023-04-02T01:45:12.225Z,99893.78
2023-04-02T01:47:39.872Z,99909.00
2023-04-02T01:50:21.497Z,99913.72
2023-04-02T01:52:51.255Z,99919.97
2023-04-02T01:55:23.851Z,99919.13
2023-04-02T01:57:52.747Z,99929.09
2023-04-02T02:00:20.841Z,99930.03
2023-04-02T02:02:51.989Z,99939.81
2023-04-02T02:05:21.633Z,99943.72
2023-04-02T02:07:51.942Z,99950.00
2023-04-02T02:10:23.330Z,99956.28
2023-04-02T02:12:49.799Z,99959.78
2023-04-02T02:15:23.353Z,99964.34
2023-04-02T02:17:50.275Z,99975.06
2023-04-02T02:20:17.880Z,99972.44
2023-04-02T02:22:46.974Z,99974.38
2023-04-02T02:25:17.020Z,99994.06
2023-04-02T02:27:49.541Z,99990.47
2023-04-02T02:30:23.410Z,99991.38
2023-04-02T02:32:58.318Z,100005.66
2023-04-02T02:35:30.493Z,100001.13
2023-04-02T02:38:24.570Z,100003.81
2023-04-02T02:40:56.795Z,100017.19
2023-04-02T02:43:24.560Z,100021.78
2023-04-02T02:45:55.347Z,100024.59
2023-04-02T02:48:25.245Z,100025.38
2023-04-02T02:50:54.511Z,100032.53
2023-04-02T02:53:24.450Z,100036.16
2023-04-02T02:55:58.073Z,100030.78
2023-04-02T02:58:30.761Z,100051.34
2023-04-02T03:01:06.415Z,100046.91
2023-04-02T03:03:35.236Z,100053.16
2023-04-02T03:06:10.015Z,100060.41
2023-04-02T03:08:43.335Z,100058.53
2023-04-02T03:11:18.707Z,100079.25
2023-04-02T03:13:50.634Z,100070.47
2023-04-02T03:16:25.919Z,100085.63
2023-04-02T03:18:57.984Z,100094.63
2023-04-02T03:21:31.120Z,100096.41
2023-04-02T03:24:01.246Z,100102.75
2023-04-02T03:26:33.972Z,100097.28
2023-04-02T03:29:04.800Z,100096.50
2023-04-02T03:31:37.856Z,100102.78
2023-04-02T03:34:09.955Z,100110.78
2023-04-02T03:36:42.573Z,100119.75
2023-04-02T03:39:17.161Z,100121.50
2023-04-02T03:41:50.874Z,100124.19
2023-04-02T03:44:25.814Z,100135.88
2023-04-02T03:46:57.940Z,100143.13
2023-04-02T03:49:34.712Z,100150.22
2023-04-02T03:52:05.556Z,100147.53
2023-04-02T03:54:33.100Z,100152.09
2023-04-02T03:57:00.106Z,100167.22
2023-04-02T03:59:39.481Z,100169.19
2023-04-02T04:02:26.989Z,100178.03
2023-04-02T04:04:55.586Z,100177.09
2023-04-02T04:07:29.676Z,100182.53
2023-04-02T04:09:58.294Z,100193.22
2023-04-02T04:12:29.888Z,100196.94
2023-04-02T04:15:02.388Z,100206.75
2023-04-02T04:17:36.376Z,100212.06
2023-04-02T04:20:15.689Z,100223.75
2023-04-02T04:22:42.255Z,100225.56
2023-04-02T04:25:21.053Z,100235.50
2023-04-02T04:30:31.480Z,100247.13
2023-04-02T04:33:04.848Z,100254.41
2023-04-02T04:35:34.830Z,100259.72
2023-04-02T04:38:12.005Z,100265.13
2023-04-02T04:40:44.680Z,100258.91
2023-04-02T04:43:16.732Z,100281.22
2023-04-02T04:45:48.245Z,100289.25
2023-04-02T04:48:23.891Z,100290.09
2023-04-02T04:50:54.894Z,100300.78
2023-04-02T04:53:25.882Z,100312.38
2023-04-02T04:55:54.906Z,100316.97
2023-04-02T04:58:25.767Z,100314.25
2023-04-02T05:00:56.312Z,100324.09
2023-04-02T05:03:33.744Z,100335.69
2023-04-02T05:06:08.673Z,100332.09
2023-04-02T05:08:43.114Z,100333.91
2023-04-02T05:11:15.251Z,100348.25
2023-04-02T05:13:47.116Z,100341.97
2023-04-02T05:16:17.768Z,100355.41
2023-04-02T05:18:52.329Z,100358.94
2023-04-02T05:21:24.745Z,100378.63
2023-04-02T05:23:56.136Z,100371.59
2023-04-02T05:26:25.730Z,100377.84
2023-04-02T05:28:57.121Z,100391.19
2023-04-02T05:31:28.083Z,100390.34
2023-04-02T05:33:57.216Z,100393.88
2023-04-02T05:36:26.477Z,100407.28
2023-04-02T05:38:57.973Z,100407.25
2023-04-02T05:41:47.367Z,100413.50
2023-04-02T05:44:27.413Z,100423.38
2023-04-02T05:46:59.078Z,100431.44
2023-04-02T05:49:36.532Z,100429.63
2023-04-02T05:52:06.624Z,100429.66
2023-04-02T05:54:37.517Z,100450.25
2023-04-02T05:57:10.453Z,100446.63
2023-04-02T05:59:40.663Z,100449.31
2023-04-02T06:02:19.075Z,100447.53
2023-04-02T06:04:54.056Z,100436.88
2023-04-02T06:07:26.454Z,100472.59
2023-04-02T06:10:03.023Z,100465.38
2023-04-02T06:12:40.806Z,100472.50
2023-04-02T06:15:15.587Z,100479.66
2023-04-02T06:17:47.281Z,100483.22
2023-04-02T06:20:18.139Z,100476.97
2023-04-02T06:22:49.079Z,100494.84
2023-04-02T06:25:20.549Z,100497.50
2023-04-02T06:27:50.741Z,100506.41
2023-04-02T06:30:24.512Z,100502.84
2023-04-02T06:32:52.157Z,100514.41
2023-04-02T06:35:21.303Z,100508.13
2023-04-02T06:38:01.280Z,100523.34
2023-04-02T06:40:38.563Z,100522.47
2023-04-02T06:43:20.749Z,100534.91
2023-04-02T06:45:59.546Z,100540.25
2023-04-02T06:48:33.081Z,100547.41
2023-04-02T06:51:06.350Z,100549.19
2023-04-02T06:53:36.514Z,100559.00
2023-04-02T06:56:12.673Z,100557.25
2023-04-02T06:58:39.167Z,100568.88
2023-04-02T07:01:05.822Z,100577.69
2023-04-02T07:03:40.121Z,100587.56
2023-04-02T07:06:31.077Z,100584.91
2023-04-02T07:08:59.966Z,100598.31
2023-04-02T07:11:27.052Z,100609.94
2023-04-02T07:13:57.075Z,100607.28
2023-04-02T07:16:27.300Z,100615.31
2023-04-02T07:18:56.040Z,100602.81
2023-04-02T07:21:24.357Z,100612.59
2023-04-02T07:23:52.185Z,100602.72
2023-04-02T07:26:22.001Z,100608.09
2023-04-02T07:28:48.941Z,100625.03
2023-04-02T07:31:17.247Z,100632.19
2023-04-02T07:33:44.380Z,100633.06
2023-04-02T07:36:14.868Z,100645.59
2023-04-02T07:38:41.235Z,100658.97
2023-04-02T07:41:09.256Z,100649.16
2023-04-02T07:43:35.633Z,100656.31
2023-04-02T07:46:02.478Z,100665.25
2023-04-02T07:48:29.110Z,100670.56
2023-04-02T07:50:55.571Z,100664.34
2023-04-02T07:53:28.132Z,100660.78
2023-04-02T07:55:54.656Z,100681.34
2023-04-02T07:58:22.510Z,100679.53
2023-04-02T08:00:49.092Z,100690.28
2023-04-02T08:03:15.696Z,100686.69
2023-04-02T08:05:42.298Z,100684.03
2023-04-02T08:08:08.990Z,100686.69
2023-04-02T08:10:35.455Z,100695.66
2023-04-02T08:13:01.863Z,100718.84
2023-04-02T08:15:29.606Z,100719.78
2023-04-02T08:17:56.038Z,100721.56
2023-04-02T08:20:22.767Z,100726.91
2023-04-02T08:22:50.385Z,100736.72
2023-04-02T08:25:17.128Z,100736.72
2023-04-02T08:27:46.546Z,100738.53
2023-04-02T08:30:13.751Z,100735.84
2023-04-02T08:32:41.644Z,100747.47
2023-04-02T08:35:09.263Z,100764.41
2023-04-02T08:37:35.701Z,100759.06
2023-04-02T08:40:02.168Z,100772.44
2023-04-02T08:42:37.663Z,100771.56
2023-04-02T08:45:25.061Z,100751.91
2023-04-02T08:47:56.308Z,100779.59
2023-04-02T08:50:30.120Z,100783.16
2023-04-02T08:52:57.271Z,100778.69
2023-04-02T08:55:31.577Z,100774.22
2023-04-02T08:58:07.444Z,100781.38
2023-04-02T09:00:38.033Z,100781.38
2023-04-02T09:03:10.073Z,100793.88
2023-04-02T09:05:40.702Z,100789.38
2023-04-02T09:08:15.099Z,100783.13
2023-04-02T09:10:50.700Z,100789.38
2023-04-02T09:13:23.650Z,100799.22
2023-04-02T09:15:52.755Z,100805.44
2023-04-02T09:18:20.944Z,100813.50
2023-04-02T09:20:47.583Z,100824.25
2023-04-02T09:23:17.084Z,100819.78
2023-04-02T09:25:57.419Z,100823.34
2023-04-02T09:28:29.709Z,100826.00
2023-04-02T09:31:01.224Z,100831.38
2023-04-02T09:33:46.401Z,100831.34
2023-04-02T09:36:32.150Z,100840.25
2023-04-02T09:39:01.691Z,100845.66
2023-04-02T09:41:29.714Z,100850.06
2023-04-02T09:44:23.189Z,100851.00
2023-04-02T09:46:54.839Z,100850.97
2023-04-02T09:49:27.013Z,100851.88
2023-04-02T09:52:28.144Z,100864.41
2023-04-02T09:55:19.112Z,100867.97
2023-04-02T09:57:47.112Z,100878.69
2023-04-02T10:00:31.676Z,100868.84
2023-04-02T10:03:25.945Z,100879.56
2023-04-02T10:06:09.214Z,100897.41
2023-04-02T10:08:39.934Z,100891.16
2023-04-02T10:11:10.792Z,100895.63
2023-04-02T10:13:46.682Z,100906.34
2023-04-02T10:16:19.362Z,100897.38
2023-04-02T10:18:50.019Z,100895.63
2023-04-02T10:21:19.406Z,100901.84
2023-04-02T10:23:45.725Z,100909.91
2023-04-02T10:26:30.405Z,100918.84
2023-04-02T10:29:12.900Z,100916.13
2023-04-02T10:31:48.810Z,100917.03
2023-04-02T10:34:23.407Z,100913.41
2023-04-02T10:36:54.561Z,100931.28
2023-04-02T10:39:25.002Z,100926.81
2023-04-02T10:41:56.715Z,100926.81
2023-04-02T10:44:42.855Z,100942.09
2023-04-02T10:47:22.047Z,100933.13
2023-04-02T10:49:55.401Z,100952.81
2023-04-02T10:52:29.170Z,100946.53
2023-04-02T10:55:00.453Z,100942.91
2023-04-02T10:57:34.286Z,100952.75
2023-04-02T11:00:08.951Z,100950.94
2023-04-02T11:02:41.542Z,100957.19
2023-04-02T11:05:17.666Z,100947.34
2023-04-02T11:07:59.235Z,100966.94
2023-04-02T11:10:29.004Z,100960.56
2023-04-02T11:13:00.718Z,100964.94
2023-04-02T11:15:29.529Z,100964.97
2023-04-02T11:17:56.274Z,100975.72
2023-04-02T11:20:55.678Z,100975.69
2023-04-02T11:23:27.872Z,100981.91
2023-04-02T11:26:32.121Z,100991.72
2023-04-02T11:29:08.393Z,100994.41
2023-04-02T11:31:35.019Z,100992.63
2023-04-02T11:34:01.539Z,100994.44
2023-04-02T11:37:03.929Z,100998.97
2023-04-02T11:39:48.907Z,100989.09
2023-04-02T11:42:24.070Z,100997.91
2023-04-02T11:44:50.482Z,100998.72
2023-04-02T11:47:21.450Z,101002.31
2023-04-02T11:50:04.802Z,101002.28
2023-04-02T11:52:35.378Z,101005.84
2023-04-02T11:55:16.621Z,101009.44
2023-04-02T11:57:55.474Z,101011.19
2023-04-02T12:00:31.482Z,101006.63
2023-04-02T12:03:14.980Z,101005.50
2023-04-02T12:05:48.584Z,101015.16
2023-04-02T12:08:23.710Z,101023.00
2023-04-02T12:10:56.368Z,101026.47
2023-04-02T12:13:49.053Z,101022.97
2023-04-02T12:16:16.800Z,101030.97
2023-04-02T12:18:44.707Z,101026.50
2023-04-02T12:21:15.872Z,101029.19
2023-04-02T12:23:45.815Z,101038.31
2023-04-02T12:26:27.505Z,101027.78
2023-04-02T12:28:55.473Z,101039.53
2023-04-02T12:31:24.250Z,101039.53
2023-04-02T12:33:52.362Z,101043.13
2023-04-02T12:36:20.736Z,101045.91
2023-04-02T12:38:49.768Z,101053.19
2023-04-02T12:41:22.072Z,101043.41
2023-04-02T12:43:58.040Z,101047.03
2023-04-02T12:46:25.089Z,101055.16
2023-04-02T12:48:51.855Z,101053.41
2023-04-02T12:51:23.441Z,101059.66
2023-04-02T12:53:52.337Z,101062.31
2023-04-02T12:56:19.870Z,101055.13
2023-04-02T12:58:53.232Z,101064.09
2023-04-02T13:01:26.723Z,101052.41
2023-04-02T13:04:00.626Z,101051.44
2023-04-02T13:06:27.257Z,101062.19
2023-04-02T13:08:54.409Z,101062.13
2023-04-02T13:11:20.980Z,101071.09
2023-04-02T13:13:48.036Z,101062.06
2023-04-02T13:16:34.482Z,101066.53
2023-04-02T13:19:25.535Z,101071.78
2023-04-02T13:21:55.227Z,101070.72
2023-04-02T13:24:23.865Z,101073.16
2023-04-02T13:26:53.828Z,101078.66
2023-04-02T13:29:26.541Z,101075.16
2023-04-02T13:31:56.980Z,101089.66
2023-04-02T13:34:23.612Z,101088.88
2023-04-02T13:36:50.118Z,101084.38
2023-04-02T13:39:16.709Z,101094.25
2023-04-02T13:41:45.424Z,101088.88
2023-04-02T13:44:20.479Z,101085.41
2023-04-02T13:46:47.003Z,101091.63
2023-04-02T13:49:15.102Z,101094.31
2023-04-02T13:51:44.326Z,101086.16
2023-04-02T13:54:16.399Z,101095.88
2023-04-02T13:56:42.913Z,101097.59
2023-04-02T13:59:09.672Z,101109.09
2023-04-02T14:01:36.512Z,101095.59
2023-04-02T14:04:03.435Z,101098.41
2023-04-02T14:06:49.259Z,101106.41
2023-04-02T14:09:24.850Z,101108.97
2023-04-02T14:12:00.908Z,101108.84
2023-04-02T14:14:43.004Z,101111.59
2023-04-02T14:17:16.939Z,101117.31
2023-04-02T14:19:58.759Z,101110.84
2023-04-02T14:22:41.394Z,101117.84
2023-04-02T14:25:16.480Z,101110.75
2023-04-02T14:27:53.509Z,101116.44
2023-04-02T14:30:26.905Z,101125.47
2023-04-02T14:33:02.423Z,101122.00
2023-04-02T14:35:35.233Z,101121.13
2023-04-02T14:38:13.037Z,101126.41
2023-04-02T14:40:45.341Z,101125.50
2023-04-02T14:43:17.079Z,101126.41
2023-04-02T14:45:53.400Z,101116.09
2023-04-02T14:48:30.305Z,101129.63
2023-04-02T14:51:01.528Z,101122.53
2023-04-02T14:53:33.143Z,101129.63
2023-04-02T14:56:03.374Z,101129.53
2023-04-02T14:58:34.276Z,101137.56
2023-04-02T15:01:06.028Z,101142.13
2023-04-02T15:03:37.322Z,101143.19
2023-04-02T15:06:06.752Z,101145.97
2023-04-02T15:08:38.250Z,101152.22
2023-04-02T15:11:09.395Z,101146.22
2023-04-02T15:13:37.884Z,101159.66
2023-04-02T15:16:11.496Z,101147.16
2023-04-02T15:18:38.476Z,101153.50
2023-04-02T15:21:15.410Z,101157.09
2023-04-02T15:23:53.848Z,101153.63
2023-04-02T15:26:29.108Z,101155.44
2023-04-02T15:29:02.483Z,101159.97
2023-04-02T15:31:33.940Z,101166.25
2023-04-02T15:34:20.954Z,101169.88
2023-04-02T15:37:07.172Z,101175.41
2023-04-02T15:39:51.617Z,101185.34
2023-04-02T15:42:23.435Z,101180.03
2023-04-02T15:45:17.646Z,101186.34
2023-04-02T15:48:00.764Z,101185.47
2023-04-02T15:50:44.114Z,101178.25
2023-04-02T15:53:25.862Z,101197.13
2023-04-02T15:56:05.064Z,101192.66
2023-04-02T15:58:46.895Z,101206.16
2023-04-02T16:01:21.608Z,101204.38
2023-04-02T16:04:01.173Z,101206.19
2023-04-02T16:06:29.943Z,101205.16
2023-04-02T16:09:07.463Z,101190.53
2023-04-02T16:11:35.321Z,101200.97
2023-04-02T16:14:16.570Z,101213.38
2023-04-02T16:16:47.102Z,101208.88
2023-04-02T16:19:24.130Z,101201.19
2023-04-02T16:21:57.615Z,101213.00
2023-04-02T16:24:24.371Z,101203.25
2023-04-02T16:26:59.588Z,101212.34
2023-04-02T16:29:47.444Z,101228.56
2023-04-02T16:32:34.118Z,101234.09
2023-04-02T16:35:35.249Z,101226.94
2023-04-02T16:38:09.016Z,101239.56
2023-04-02T16:40:39.979Z,101243.19
2023-04-02T16:43:20.012Z,101242.31
2023-04-02T16:45:54.583Z,101251.31
2023-04-02T16:48:31.322Z,101256.75
2023-04-02T16:51:07.494Z,101259.47
2023-04-02T16:53:58.430Z,101258.59
2023-04-02T16:56:39.000Z,101269.38
2023-04-02T16:59:18.002Z,101270.31
2023-04-02T17:01:53.987Z,101274.81
2023-04-02T17:04:36.114Z,101271.25
2023-04-02T17:07:13.957Z,101276.66
2023-04-02T17:09:47.315Z,101273.97
2023-04-02T17:12:19.296Z,101283.84
2023-04-02T17:14:51.206Z,101283.88
2023-04-02T17:17:17.858Z,101285.66
2023-04-02T17:19:44.692Z,101297.34
2023-04-02T17:22:17.530Z,101292.88
2023-04-02T17:24:47.606Z,101304.53
2023-04-02T17:27:21.864Z,101300.97
2023-04-02T17:29:53.098Z,101301.00
2023-04-02T17:32:23.908Z,101305.44
2023-04-02T17:34:50.481Z,101307.25
2023-04-02T17:37:28.585Z,101306.34
2023-04-02T17:40:09.232Z,101318.91
2023-04-02T17:42:45.898Z,101313.53
2023-04-02T17:45:19.368Z,101305.47
2023-04-02T17:47:54.419Z,101323.38
2023-04-02T17:50:35.540Z,101321.63
2023-04-02T17:53:08.932Z,101320.72
2023-04-02T17:55:47.494Z,101323.41
2023-04-02T17:58:31.296Z,101329.69
2023-04-02T18:01:06.851Z,101335.94
2023-04-02T18:03:50.651Z,101342.22
2023-04-02T18:09:02.333Z,101347.59
2023-04-02T18:11:40.036Z,101343.13
2023-04-02T18:14:25.043Z,101359.25
2023-04-02T18:17:02.557Z,101359.25
2023-04-02T18:19:41.918Z,101350.28
2023-04-02T18:22:16.837Z,101365.53
2023-04-02T18:24:58.972Z,101366.41
2023-04-02T18:27:46.765Z,101378.06
2023-04-02T18:30:25.688Z,101377.16
2023-04-02T18:33:18.801Z,101374.47
2023-04-02T18:35:58.060Z,101381.63
2023-04-02T18:38:31.560Z,101381.63
2023-04-02T18:41:05.524Z,101381.63
2023-04-02T18:43:44.808Z,101378.94
2023-04-02T18:46:21.286Z,101395.97
2023-04-02T18:48:55.089Z,101389.69
2023-04-02T18:51:23.461Z,101400.44
2023-04-02T18:53:53.421Z,101404.91
2023-04-02T18:56:20.608Z,101406.72
2023-04-02T18:58:56.292Z,101406.75
2023-04-02T19:01:30.248Z,101426.44
2023-04-02T19:04:03.497Z,101423.78
2023-04-02T19:06:36.461Z,101430.03
2023-04-02T19:09:07.459Z,101436.31
2023-04-02T19:11:34.140Z,101442.59
2023-04-02T19:14:11.065Z,101439.00
2023-04-02T19:16:54.153Z,101438.09
2023-04-02T19:19:25.017Z,101435.41
2023-04-02T19:22:07.961Z,101439.00
2023-04-02T19:24:42.035Z,101446.16
2023-04-02T19:27:16.183Z,101445.28
2023-04-02T19:29:59.913Z,101457.84
2023-04-02T19:32:38.247Z,101456.03
2023-04-02T19:35:17.234Z,101456.91
2023-04-02T19:37:52.750Z,101469.47
2023-04-02T19:40:28.220Z,101456.94
2023-04-02T19:42:54.808Z,101470.38
2023-04-02T19:45:32.074Z,101465.91
2023-04-02T19:48:00.509Z,101473.97
2023-04-02T19:50:28.571Z,101473.06
2023-04-02T19:52:54.949Z,101466.78
2023-04-02T19:55:24.428Z,101478.41
2023-04-02T19:57:52.677Z,101469.47
2023-04-02T20:00:21.140Z,101469.44
2023-04-02T20:02:47.597Z,101478.41
2023-04-02T20:05:14.366Z,101489.16
2023-04-02T20:07:42.171Z,101488.28
2023-04-02T20:10:09.980Z,101492.72
2023-04-02T20:12:36.419Z,101496.31
2023-04-02T20:15:03.853Z,101497.19
2023-04-02T20:17:30.273Z,101498.06
2023-04-02T20:19:56.866Z,101504.34
2023-04-02T20:22:23.488Z,101512.41
2023-04-02T20:24:51.234Z,101518.69
2023-04-02T20:27:17.702Z,101518.66
2023-04-02T20:29:44.381Z,101522.25
2023-04-02T20:32:11.113Z,101521.34
2023-04-02T20:34:37.614Z,101527.59
2023-04-02T20:37:04.046Z,101529.34
2023-04-02T20:39:30.585Z,101539.19
2023-04-02T20:41:58.841Z,101528.41
2023-04-02T20:44:25.228Z,101540.94
2023-04-02T20:46:51.649Z,101543.63
2023-04-02T20:49:20.296Z,101553.50
2023-04-02T20:51:48.504Z,101551.69
2023-04-02T20:54:16.319Z,101555.25
2023-04-02T20:56:42.724Z,101550.78
2023-04-02T20:59:10.914Z,101552.53
2023-04-02T21:01:37.531Z,101555.22
2023-04-02T21:04:05.865Z,101557.84
2023-04-02T21:06:34.738Z,101565.00
2023-04-02T21:09:02.271Z,101566.78
2023-04-02T21:11:28.950Z,101568.56
2023-04-02T21:13:55.718Z,101571.28
2023-04-02T21:16:24.806Z,101572.16
2023-04-02T21:18:52.602Z,101580.16
2023-04-02T21:21:20.230Z,101578.34
2023-04-02T21:23:46.945Z,101586.38
2023-04-02T21:26:15.669Z,101581.88
2023-04-02T21:28:45.493Z,101596.22
2023-04-02T21:31:13.771Z,101589.94
2023-04-02T21:33:43.572Z,101597.06
2023-04-02T21:36:11.865Z,101596.19
2023-04-02T21:38:42.365Z,101588.97
2023-04-02T21:41:09.343Z,101605.94
2023-04-02T21:43:35.755Z,101606.84
2023-04-02T21:46:02.300Z,101607.75
2023-04-02T21:48:29.566Z,101611.31
2023-04-02T21:51:04.676Z,101603.19
2023-04-02T21:53:31.110Z,101609.41
2023-04-02T21:56:01.054Z,101608.41
2023-04-02T21:58:27.532Z,101617.41
2023-04-02T22:00:53.990Z,101618.28
2023-04-02T22:03:31.136Z,101608.34
2023-04-02T22:06:05.610Z,101613.75
2023-04-02T22:08:32.086Z,101616.38
2023-04-02T22:11:04.587Z,101619.91
2023-04-02T22:13:31.120Z,101619.91
2023-04-02T22:16:00.386Z,101625.22
2023-04-02T22:18:26.971Z,101626.09
2023-04-02T22:20:53.766Z,101634.13
2023-04-02T22:23:21.509Z,101634.94
2023-04-02T22:25:47.919Z,101632.25
2023-04-02T22:28:14.339Z,101633.97
2023-04-02T22:30:40.818Z,101632.19
2023-04-02T22:33:07.297Z,101634.84
2023-04-02T22:35:33.966Z,101633.94
2023-04-02T22:38:00.483Z,101632.06
2023-04-02T22:40:28.362Z,101634.72
2023-04-02T22:42:54.986Z,101624.78
2023-04-02T22:45:21.662Z,101631.03
2023-04-02T22:47:49.008Z,101633.69
2023-04-02T22:50:16.246Z,101639.06
2023-04-02T22:52:43.277Z,101643.50
2023-04-02T22:55:11.376Z,101649.72
2023-04-02T22:57:39.077Z,101653.25
2023-04-02T23:00:07.817Z,101651.47
2023-04-02T23:02:34.270Z,101656.75
2023-04-02T23:05:00.777Z,101653.06
2023-04-02T23:07:27.217Z,101654.84
2023-04-02T23:09:53.586Z,101669.22
2023-04-02T23:12:20.068Z,101662.97
2023-04-02T23:14:47.822Z,101663.75
2023-04-02T23:17:14.280Z,101672.66
2023-04-02T23:19:40.852Z,101670.69
2023-04-02T23:22:07.267Z,101667.03
2023-04-02T23:24:33.640Z,101672.19
2023-04-02T23:27:00.169Z,101675.75
2023-04-02T23:29:26.706Z,101681.13
2023-04-02T23:31:55.070Z,101676.50
2023-04-02T23:34:21.757Z,101682.59
2023-04-02T23:36:48.143Z,101687.84
2023-04-02T23:39:14.555Z,101677.16
2023-04-02T23:41:42.676Z,101680.69
2023-04-02T23:44:09.545Z,101681.63
2023-04-02T23:46:36.142Z,101676.28
2023-04-02T23:49:04.003Z,101680.78
2023-04-02T23:51:30.942Z,101686.84
2023-04-02T23:53:57.455Z,101685.94
2023-04-02T23:56:24.642Z,101684.09
2023-04-02T23:58:51.387Z,101684.94
